Time;durP1;ratioP1;P1;durP2;ratioP2;P2;SDS_P1;SDS_P2;PMS_P1;PMS_P2;Temp;Humidity;BMP_temperature;BMP_pressure;BME280_temperature;BME280_humidity;BME280_pressure;Samples;Min_cycle;Max_cycle;Signal;HPM_P1;HPM_P2
2023/11/25 00:00:31;;;;;;;;;;;;;;;0.17;89.81;98860.52;106521;1263;72834;-89
2023/11/25 00:03:18;;;;;;;;;;;;;;;0.17;90.04;98868.45;106414;1263;124429;-90
2023/11/25 00:05:44;;;;;;;;;;;;;;;0.17;90.04;98871.22;106434;1261;61305;-89
2023/11/25 00:08:11;;;;;;;;;;;;;;;0.20;90.24;98873.91;106431;1263;73345;-90
2023/11/25 00:10:38;;;;;;;;;;;;;;;0.27;90.81;98881.89;106250;1261;124497;-90
2023/11/25 00:13:05;;;;;;;;;;;;;;;0.33;91.10;98886.09;106468;1263;71428;-90
2023/11/25 00:15:32;;;;;;;;;;;;;;;0.37;91.08;98882.42;106360;1260;124428;-89
2023/11/25 00:17:59;;;;;;;;;;;;;;;0.44;91.51;98883.20;106411;1260;61294;-90
2023/11/25 00:20:25;;;;;;;;;;;;;;;0.52;91.35;98889.02;106227;1260;73428;-89
2023/11/25 00:22:52;;;;;;;;;;;;;;;0.60;91.52;98892.17;106301;1260;124569;-89
2023/11/25 00:25:19;;;;;;;;;;;;;;;0.65;91.43;98893.08;106309;1260;71478;-89
2023/11/25 00:27:46;;;;;;;;;;;;;;;0.69;91.19;98898.02;106384;1263;124713;-90
2023/11/25 00:30:14;;;;;;;;;;;;;;;0.66;90.72;98898.27;106436;1259;61154;-90
2023/11/25 00:32:41;;;;;;;;;;;;;;;0.58;90.48;98898.70;106279;1259;74750;-90
2023/11/25 00:35:07;;;;;;;;;;;;;;;0.48;90.27;98901.10;106261;1261;125100;-89
2023/11/25 00:37:35;;;;;;;;;;;;;;;0.38;90.02;98905.24;106479;1259;71829;-90
2023/11/25 00:40:09;;;;;;;;;;;;;;;0.29;89.77;98910.27;106076;1260;124368;-90
2023/11/25 00:42:47;;;;;;;;;;;;;;;0.19;89.74;98916.98;106312;1259;61250;-91
2023/11/25 00:45:26;;;;;;;;;;;;;;;0.11;89.76;98917.54;106341;1259;124630;-91
2023/11/25 00:47:56;;;;;;;;;;;;;;;0.10;89.90;98919.58;106411;1259;67164;-91
2023/11/25 00:50:24;;;;;;;;;;;;;;;0.17;90.43;98928.30;106245;1261;72838;-90
2023/11/25 00:52:52;;;;;;;;;;;;;;;0.27;90.56;98936.60;106086;1259;124307;-89
2023/11/25 00:55:19;;;;;;;;;;;;;;;0.34;90.92;98932.70;106450;1264;61184;-89
2023/11/25 00:57:47;;;;;;;;;;;;;;;0.38;91.06;98937.33;106390;1261;124895;-91
2023/11/25 01:00:15;;;;;;;;;;;;;;;0.41;91.05;98939.69;106435;1259;66293;-90
2023/11/25 01:02:43;;;;;;;;;;;;;;;0.47;91.37;98940.08;106451;1259;71460;-91
2023/11/25 01:05:09;;;;;;;;;;;;;;;0.52;91.39;98935.58;106287;1264;124710;-90
2023/11/25 01:07:37;;;;;;;;;;;;;;;0.53;91.39;98940.96;106481;1265;61251;-90
2023/11/25 01:10:04;;;;;;;;;;;;;;;0.51;90.97;98944.69;106304;1260;124533;-90
2023/11/25 01:12:33;;;;;;;;;;;;;;;0.46;91.07;98945.74;106462;1259;64862;-84
2023/11/25 01:15:00;;;;;;;;;;;;;;;0.44;91.09;98951.19;106290;1260;124566;-84
2023/11/25 01:17:26;;;;;;;;;;;;;;;0.42;91.14;98951.98;106342;1263;61365;-84
2023/11/25 01:19:53;;;;;;;;;;;;;;;0.38;90.89;98950.60;106305;1259;61360;-84
2023/11/25 01:22:20;;;;;;;;;;;;;;;0.34;90.96;98953.25;106144;1261;124377;-84
2023/11/25 01:24:47;;;;;;;;;;;;;;;0.31;91.09;98946.38;106212;1265;65011;-83
2023/11/25 01:27:14;;;;;;;;;;;;;;;0.27;91.08;98947.09;106345;1259;124423;-84
2023/11/25 01:29:41;;;;;;;;;;;;;;;0.23;91.07;98952.32;106424;1261;61277;-84
2023/11/25 01:32:07;;;;;;;;;;;;;;;0.21;90.91;98952.07;106334;1259;61362;-84
2023/11/25 01:34:35;;;;;;;;;;;;;;;0.23;91.33;98952.84;106268;1263;124278;-83
2023/11/25 01:37:01;;;;;;;;;;;;;;;0.31;91.53;98955.03;106277;1259;64690;-84
2023/11/25 01:39:30;;;;;;;;;;;;;;;0.40;91.75;98964.14;106231;1260;123343;-83
2023/11/25 01:41:56;;;;;;;;;;;;;;;0.49;91.73;98964.45;106370;1260;61287;-83
2023/11/25 01:44:23;;;;;;;;;;;;;;;0.56;91.83;98965.26;106517;1260;61282;-84
2023/11/25 01:46:51;;;;;;;;;;;;;;;0.60;91.79;98964.50;106309;1259;124550;-84
2023/11/25 01:49:19;;;;;;;;;;;;;;;0.59;91.42;98963.27;106360;1263;66658;-84
2023/11/25 01:51:46;;;;;;;;;;;;;;;0.56;91.08;98964.73;106051;1261;125603;-84
2023/11/25 01:54:16;;;;;;;;;;;;;;;0.51;90.78;98960.40;106243;1259;61265;-83
2023/11/25 01:56:50;;;;;;;;;;;;;;;0.45;90.66;98961.71;106374;1259;61719;-84
2023/11/25 01:59:17;;;;;;;;;;;;;;;0.38;90.69;98959.77;106063;1260;124528;-83
2023/11/25 02:01:46;;;;;;;;;;;;;;;0.33;90.87;98958.73;106341;1259;66317;-84
2023/11/25 02:04:13;;;;;;;;;;;;;;;0.28;90.55;98959.93;106259;1259;124689;-84
2023/11/25 02:06:40;;;;;;;;;;;;;;;0.23;90.58;98956.26;106361;1259;61382;-84
2023/11/25 02:09:06;;;;;;;;;;;;;;;0.17;90.43;98958.33;106244;1259;127108;-84
2023/11/25 02:11:52;;;;;;;;;;;;;;;0.12;90.72;98955.52;106366;1263;73490;-84
2023/11/25 02:14:18;;;;;;;;;;;;;;;0.05;90.50;98961.31;106401;1263;66350;-83
2023/11/25 02:16:45;;;;;;;;;;;;;;;0.01;90.50;98964.06;106362;1259;124501;-82
2023/11/25 02:19:12;;;;;;;;;;;;;;;-0.05;90.49;98960.76;106512;1257;61363;-82
2023/11/25 02:21:39;;;;;;;;;;;;;;;-0.08;90.61;98964.27;106270;1259;124717;-82
2023/11/25 02:24:07;;;;;;;;;;;;;;;-0.13;90.42;98958.35;106390;1260;73426;-83
2023/11/25 02:26:36;;;;;;;;;;;;;;;-0.17;90.61;98960.29;106343;1262;66444;-83
2023/11/25 02:29:03;;;;;;;;;;;;;;;-0.20;90.48;98965.19;106335;1259;124927;-81
2023/11/25 02:31:30;;;;;;;;;;;;;;;-0.21;90.64;98970.14;106313;1259;61368;-82
2023/11/25 02:33:56;;;;;;;;;;;;;;;-0.22;90.80;98969.09;106320;1260;124742;-83
2023/11/25 02:36:23;;;;;;;;;;;;;;;-0.23;90.77;98972.48;106252;1264;73602;-82
2023/11/25 02:38:50;;;;;;;;;;;;;;;-0.27;90.59;98974.22;106390;1259;65078;-83
2023/11/25 02:41:18;;;;;;;;;;;;;;;-0.31;90.68;98971.31;106275;1260;124434;-81
2023/11/25 02:43:46;;;;;;;;;;;;;;;-0.36;90.55;98978.52;106287;1259;61309;-82
2023/11/25 02:46:12;;;;;;;;;;;;;;;-0.40;90.43;98985.06;106204;1259;124813;-83
2023/11/25 02:48:39;;;;;;;;;;;;;;;-0.44;90.55;98991.80;106261;1259;75262;-82
2023/11/25 02:51:09;;;;;;;;;;;;;;;-0.47;90.50;98993.74;106209;1259;124646;-83
2023/11/25 02:53:35;;;;;;;;;;;;;;;-0.50;90.45;98998.83;106371;1260;72794;-82
2023/11/25 02:56:02;;;;;;;;;;;;;;;-0.51;90.49;99007.70;106437;1263;61298;-83
2023/11/25 02:58:31;;;;;;;;;;;;;;;-0.53;90.56;99010.75;106266;1260;125103;-83
2023/11/25 03:01:06;;;;;;;;;;;;;;;-0.52;90.79;99017.15;106414;1259;75857;-82
2023/11/25 03:03:36;;;;;;;;;;;;;;;-0.50;90.94;99017.42;106369;1259;124921;-83
2023/11/25 03:06:05;;;;;;;;;;;;;;;-0.45;91.08;99025.20;106416;1259;72477;-83
2023/11/25 03:08:34;;;;;;;;;;;;;;;-0.34;91.38;99030.11;106386;1262;61814;-91
2023/11/25 03:11:08;;;;;;;;;;;;;;;-0.19;91.81;99031.41;106362;1259;124850;-91
2023/11/25 03:13:35;;;;;;;;;;;;;;;-0.01;91.83;99040.56;106624;1259;74607;-93
2023/11/25 03:16:01;;;;;;;;;;;;;;;0.14;92.22;99041.48;106300;1259;124823;-91
2023/11/25 03:18:28;;;;;;;;;;;;;;;0.25;92.60;99046.20;106532;1259;71826;-92
2023/11/25 03:20:55;;;;;;;;;;;;;;;0.30;92.90;99047.64;106473;1259;61343;-91
2023/11/25 03:23:22;;;;;;;;;;;;;;;0.33;93.50;99051.22;106359;1261;124573;-91
2023/11/25 03:25:49;;;;;;;;;;;;;;;0.36;93.94;99054.09;106367;1259;73111;-91
2023/11/25 03:28:16;;;;;;;;;;;;;;;0.41;94.40;99054.59;106381;1261;123471;-91
2023/11/25 03:30:43;;;;;;;;;;;;;;;0.46;94.81;99053.61;106313;1260;71490;-91
2023/11/25 03:33:09;;;;;;;;;;;;;;;0.52;95.01;99044.48;106219;1260;124647;-91
2023/11/25 03:35:36;;;;;;;;;;;;;;;0.58;95.18;99040.40;106428;1259;59903;-92
2023/11/25 03:38:02;;;;;;;;;;;;;;;0.62;95.08;99035.86;106376;1259;74661;-93
2023/11/25 03:40:29;;;;;;;;;;;;;;;0.58;94.89;99036.09;106430;1259;124406;-91
2023/11/25 03:42:58;;;;;;;;;;;;;;;0.56;94.77;99030.84;106200;1264;73905;-83
2023/11/25 03:45:26;;;;;;;;;;;;;;;0.57;94.82;99033.96;106383;1259;124790;-83
2023/11/25 03:47:53;;;;;;;;;;;;;;;0.60;95.00;99039.08;106381;1259;59569;-84
2023/11/25 03:50:20;;;;;;;;;;;;;;;0.64;95.06;99039.56;106521;1259;74499;-92
2023/11/25 03:52:47;;;;;;;;;;;;;;;0.69;95.14;99046.84;106297;1267;124479;-92
2023/11/25 03:55:13;;;;;;;;;;;;;;;0.72;95.26;99048.68;106553;1259;71488;-92
2023/11/25 03:57:41;;;;;;;;;;;;;;;0.74;95.12;99057.73;106569;1260;124424;-92
2023/11/25 04:00:14;;;;;;;;;;;;;;;0.75;95.01;99057.59;106592;1266;61293;-92
2023/11/25 04:02:45;;;;;;;;;;;;;;;0.76;95.19;99057.83;106504;1259;73449;-91
2023/11/25 04:05:13;;;;;;;;;;;;;;;0.78;95.26;99061.51;106446;1259;124591;-90
2023/11/25 04:07:40;;;;;;;;;;;;;;;0.79;95.23;99070.16;106455;1259;73491;-91
2023/11/25 04:10:18;;;;;;;;;;;;;;;0.77;95.07;99081.32;106517;1259;123223;-91
2023/11/25 04:12:52;;;;;;;;;;;;;;;0.73;95.11;99084.13;106687;1259;61166;-91
2023/11/25 04:15:23;;;;;;;;;;;;;;;0.74;95.25;99091.91;106734;1259;124585;-91
2023/11/25 04:17:59;;;;;;;;;;;;;;;0.77;95.42;99094.45;106614;1259;66400;-91
2023/11/25 04:20:46;;;;;;;;;;;;;;;0.81;95.49;99089.92;106681;1263;71449;-84
2023/11/25 04:23:15;;;;;;;;;;;;;;;0.86;95.55;99086.13;106312;1259;124305;-91
2023/11/25 04:25:55;;;;;;;;;;;;;;;0.91;95.60;99087.70;106609;1259;61280;-91
2023/11/25 04:28:24;;;;;;;;;;;;;;;0.91;95.31;99087.02;106709;1259;124559;-92
2023/11/25 04:31:13;;;;;;;;;;;;;;;0.91;95.15;99085.48;106766;1263;67166;-92
2023/11/25 04:33:56;;;;;;;;;;;;;;;0.95;95.10;99087.69;106483;1259;124303;-93
2023/11/25 04:36:24;;;;;;;;;;;;;;;0.99;95.06;99086.26;106460;1261;61322;-92
2023/11/25 04:38:53;;;;;;;;;;;;;;;1.02;94.90;99094.14;106485;1259;61284;-91
2023/11/25 04:41:22;;;;;;;;;;;;;;;1.04;94.83;99096.64;106424;1264;124200;-92
2023/11/25 04:43:50;;;;;;;;;;;;;;;1.05;94.64;99100.45;106468;1265;66080;-91
2023/11/25 04:46:17;;;;;;;;;;;;;;;1.05;94.72;99099.45;106465;1259;124391;-91
2023/11/25 04:48:43;;;;;;;;;;;;;;;1.04;94.50;99100.46;106484;1259;61204;-91
2023/11/25 04:51:14;;;;;;;;;;;;;;;1.04;94.75;99117.19;106485;1259;124457;-92
2023/11/25 04:53:41;;;;;;;;;;;;;;;1.03;94.77;99119.58;106559;1259;74480;-88
2023/11/25 04:56:08;;;;;;;;;;;;;;;1.00;94.69;99125.02;106486;1259;64990;-91
2023/11/25 04:58:35;;;;;;;;;;;;;;;0.97;94.64;99114.72;106192;1259;124350;-87
2023/11/25 05:01:01;;;;;;;;;;;;;;;0.96;94.56;99116.73;106385;1259;61349;-81
2023/11/25 05:03:28;;;;;;;;;;;;;;;0.88;94.28;99127.98;106290;1259;124448;-80
2023/11/25 05:05:55;;;;;;;;;;;;;;;0.77;94.29;99129.86;106560;1259;75719;-83
2023/11/25 05:08:22;;;;;;;;;;;;;;;0.67;94.13;99137.23;106395;1259;66366;-83
2023/11/25 05:10:48;;;;;;;;;;;;;;;0.59;93.89;99142.95;106363;1259;124251;-83
2023/11/25 05:13:16;;;;;;;;;;;;;;;0.52;94.12;99150.10;106504;1259;61173;-83
2023/11/25 05:15:43;;;;;;;;;;;;;;;0.48;94.11;99156.34;106282;1259;124786;-82
2023/11/25 05:18:10;;;;;;;;;;;;;;;0.46;94.24;99164.38;106360;1261;72501;-82
2023/11/25 05:20:37;;;;;;;;;;;;;;;0.45;94.36;99160.72;106324;1259;66302;-83
2023/11/25 05:23:03;;;;;;;;;;;;;;;0.43;94.21;99163.90;106438;1264;124411;-83
2023/11/25 05:25:30;;;;;;;;;;;;;;;0.40;94.13;99167.58;106486;1261;61342;-83
2023/11/25 05:27:57;;;;;;;;;;;;;;;0.36;94.08;99165.20;106382;1259;124273;-84
2023/11/25 05:30:25;;;;;;;;;;;;;;;0.34;94.02;99172.89;106361;1259;74648;-84
2023/11/25 05:32:51;;;;;;;;;;;;;;;0.33;94.06;99173.35;106368;1259;64333;-84
2023/11/25 05:35:18;;;;;;;;;;;;;;;0.34;94.10;99172.36;106311;1259;124390;-82
2023/11/25 05:37:45;;;;;;;;;;;;;;;0.40;94.21;99171.07;106416;1264;61281;-85
2023/11/25 05:40:11;;;;;;;;;;;;;;;0.44;94.46;99169.29;106396;1259;124763;-81
2023/11/25 05:42:41;;;;;;;;;;;;;;;0.40;94.20;99172.42;106385;1261;74983;-80
2023/11/25 05:45:08;;;;;;;;;;;;;;;0.32;93.64;99185.03;106280;1259;124707;-81
2023/11/25 05:47:35;;;;;;;;;;;;;;;0.26;93.84;99190.31;106435;1259;71465;-81
2023/11/25 05:50:03;;;;;;;;;;;;;;;0.21;93.77;99191.83;106443;1260;61250;-82
2023/11/25 05:52:30;;;;;;;;;;;;;;;0.17;93.88;99203.77;106362;1260;125234;-83
2023/11/25 05:54:56;;;;;;;;;;;;;;;0.13;93.73;99202.23;106379;1259;74754;-83
2023/11/25 05:57:23;;;;;;;;;;;;;;;0.08;93.77;99204.95;106222;1263;124596;-83
2023/11/25 05:59:49;;;;;;;;;;;;;;;0.02;93.54;99208.31;106362;1259;72798;-85
2023/11/25 06:02:16;;;;;;;;;;;;;;;-0.03;93.52;99210.34;107104;1263;61174;-83
2023/11/25 06:04:43;;;;;;;;;;;;;;;-0.06;93.41;99211.91;107642;1259;123396;-88
2023/11/25 06:07:10;;;;;;;;;;;;;;;-0.06;93.72;99216.08;106758;1260;73331;-81
2023/11/25 06:09:36;;;;;;;;;;;;;;;0.02;94.03;99220.57;107339;1259;123491;-85
2023/11/25 06:15:22;;;;;;;;;;;;;;;0.17;94.06;99233.44;106396;1260;124413;-87
2023/11/25 06:17:50;;;;;;;;;;;;;;;0.19;94.19;99237.13;106477;1260;61379;-89
2023/11/25 06:20:16;;;;;;;;;;;;;;;0.19;94.14;99240.58;106472;1261;74712;-88
2023/11/25 06:22:43;;;;;;;;;;;;;;;0.16;93.95;99245.83;106363;1259;124650;-88
2023/11/25 06:25:10;;;;;;;;;;;;;;;0.14;93.97;99247.80;106280;1261;72636;-87
2023/11/25 06:27:36;;;;;;;;;;;;;;;0.13;93.88;99248.80;106267;1259;124592;-91
2023/11/25 06:30:03;;;;;;;;;;;;;;;0.10;93.63;99254.54;106496;1259;60792;-88
2023/11/25 06:32:32;;;;;;;;;;;;;;;0.08;93.71;99258.20;106641;1259;74768;-89
2023/11/25 06:35:00;;;;;;;;;;;;;;;0.07;94.01;99257.86;106533;1259;124294;-88
2023/11/25 06:37:27;;;;;;;;;;;;;;;0.06;93.93;99257.98;106583;1259;71633;-84
2023/11/25 06:39:54;;;;;;;;;;;;;;;0.11;94.34;99262.84;106394;1259;124977;-85
2023/11/25 06:42:22;;;;;;;;;;;;;;;0.20;94.50;99264.45;106735;1263;61174;-85
2023/11/25 06:44:50;;;;;;;;;;;;;;;0.23;94.32;99266.81;106475;1266;73368;-87
2023/11/25 06:47:17;;;;;;;;;;;;;;;0.24;94.13;99269.42;106286;1259;124653;-85
2023/11/25 06:49:45;;;;;;;;;;;;;;;0.25;94.38;99266.89;106316;1259;72695;-85
2023/11/25 06:52:12;;;;;;;;;;;;;;;0.27;94.35;99266.63;106311;1259;123425;-86
2023/11/25 06:54:39;;;;;;;;;;;;;;;0.25;94.20;99272.05;106406;1259;61991;-86
2023/11/25 06:57:06;;;;;;;;;;;;;;;0.29;94.29;99276.90;106222;1261;124438;-85
2023/11/25 06:59:32;;;;;;;;;;;;;;;0.37;94.57;99281.55;106330;1259;65012;-85
2023/11/25 07:01:59;;;;;;;;;;;;;;;0.43;94.53;99282.81;106311;1259;72609;-86
2023/11/25 07:04:26;;;;;;;;;;;;;;;0.45;94.53;99281.88;106383;1259;124350;-86
2023/11/25 07:06:54;;;;;;;;;;;;;;;0.52;94.54;99278.04;106189;1259;61260;-86
2023/11/25 07:09:21;;;;;;;;;;;;;;;0.57;94.31;99279.26;106212;1259;124409;-86
2023/11/25 07:11:51;;;;;;;;;;;;;;;0.54;94.20;99278.09;106410;1259;64740;-86
2023/11/25 07:14:18;;;;;;;;;;;;;;;0.48;93.90;99283.90;106463;1261;72564;-85
2023/11/25 07:16:45;;;;;;;;;;;;;;;0.43;93.42;99285.42;106275;1263;125095;-86
2023/11/25 07:19:11;;;;;;;;;;;;;;;0.40;93.55;99288.02;106313;1264;60238;-86
2023/11/25 07:21:38;;;;;;;;;;;;;;;0.36;93.42;99286.52;106174;1262;124803;-86
2023/11/25 07:24:07;;;;;;;;;;;;;;;0.35;93.43;99289.92;106387;1259;63943;-85
2023/11/25 07:26:41;;;;;;;;;;;;;;;0.35;93.38;99289.72;106456;1259;71492;-85
2023/11/25 07:29:10;;;;;;;;;;;;;;;0.34;93.58;99288.50;106380;1259;124480;-86
2023/11/25 07:31:36;;;;;;;;;;;;;;;0.35;93.48;99289.77;106567;1259;61192;-85
2023/11/25 07:34:06;;;;;;;;;;;;;;;0.38;93.50;99290.23;107025;1259;124328;-86
2023/11/25 07:36:42;;;;;;;;;;;;;;;0.44;93.59;99295.30;107106;1259;66336;-96
2023/11/25 07:39:09;;;;;;;;;;;;;;;0.54;93.79;99305.04;107056;1261;124595;-85
2023/11/25 07:41:36;;;;;;;;;;;;;;;0.79;94.52;99309.70;106338;1259;61257;-85
2023/11/25 07:44:03;;;;;;;;;;;;;;;1.35;95.67;99316.71;106445;1259;61362;-86
2023/11/25 07:46:29;;;;;;;;;;;;;;;1.69;95.29;99317.64;106322;1259;124380;-86
2023/11/25 07:48:56;;;;;;;;;;;;;;;1.71;94.19;99309.09;106354;1259;64670;-83
2023/11/25 07:51:25;;;;;;;;;;;;;;;1.67;93.43;99300.64;106072;1264;124418;-84
2023/11/25 07:53:52;;;;;;;;;;;;;;;1.55;92.68;99309.02;106260;1259;61200;-84
2023/11/25 07:56:19;;;;;;;;;;;;;;;1.39;91.93;99318.27;106185;1264;61129;-86
2023/11/25 07:58:46;;;;;;;;;;;;;;;1.26;91.86;99326.20;106250;1263;124309;-86
2023/11/25 08:01:13;;;;;;;;;;;;;;;1.18;91.99;99335.92;106461;1263;66263;-81
2023/11/25 08:03:39;;;;;;;;;;;;;;;1.16;92.07;99342.95;106251;1259;124609;-87
2023/11/25 08:06:06;;;;;;;;;;;;;;;1.23;92.24;99345.98;106363;1259;61122;-86
2023/11/25 08:08:32;;;;;;;;;;;;;;;1.29;92.34;99348.64;106475;1259;61497;-79
2023/11/25 08:10:59;;;;;;;;;;;;;;;1.37;92.38;99348.58;106324;1259;124672;-79
2023/11/25 08:13:26;;;;;;;;;;;;;;;1.43;92.39;99347.62;106352;1261;65025;-80
2023/11/25 08:15:53;;;;;;;;;;;;;;;1.48;92.42;99346.95;106053;1264;124820;-80
2023/11/25 08:18:19;;;;;;;;;;;;;;;1.50;92.15;99341.83;106393;1259;61271;-81
2023/11/25 08:20:46;;;;;;;;;;;;;;;1.48;91.98;99338.98;106255;1259;61335;-80
2023/11/25 08:23:13;;;;;;;;;;;;;;;1.46;91.70;99339.94;106262;1259;124243;-81
2023/11/25 08:25:40;;;;;;;;;;;;;;;1.44;91.46;99333.66;106422;1261;65009;-81
2023/11/25 08:28:07;;;;;;;;;;;;;;;1.42;91.59;99332.88;106208;1259;124686;-80
2023/11/25 08:30:34;;;;;;;;;;;;;;;1.39;91.52;99332.59;106411;1260;61302;-80
2023/11/25 08:33:01;;;;;;;;;;;;;;;1.38;91.36;99333.92;106597;1261;61177;-90
2023/11/25 08:35:28;;;;;;;;;;;;;;;1.36;91.37;99329.21;106570;1259;74344;-87
2023/11/25 08:37:54;;;;;;;;;;;;;;;1.38;91.41;99328.95;106345;1259;66186;-80
2023/11/25 08:40:21;;;;;;;;;;;;;;;1.41;91.44;99330.43;106317;1261;124384;-80
2023/11/25 08:42:51;;;;;;;;;;;;;;;1.45;91.53;99338.52;106561;1264;61253;-79
2023/11/25 08:45:19;;;;;;;;;;;;;;;1.52;91.71;99349.86;106405;1259;124980;-83
2023/11/25 08:47:46;;;;;;;;;;;;;;;1.63;91.77;99353.08;106356;1262;73815;-82
2023/11/25 08:50:15;;;;;;;;;;;;;;;1.73;91.68;99357.56;106133;1261;66307;-82
2023/11/25 08:52:44;;;;;;;;;;;;;;;1.78;91.20;99361.04;106203;1259;124257;-89
2023/11/25 08:55:17;;;;;;;;;;;;;;;1.87;91.52;99367.44;106620;1259;62146;-89
2023/11/25 08:57:43;;;;;;;;;;;;;;;2.11;91.69;99368.85;106665;1259;124618;-88
2023/11/25 09:00:19;;;;;;;;;;;;;;;2.37;91.84;99372.90;106782;1259;74420;-86
2023/11/25 09:02:48;;;;;;;;;;;;;;;2.51;91.35;99371.83;106720;1264;65067;-88
2023/11/25 09:05:14;;;;;;;;;;;;;;;2.55;90.89;99377.32;107108;1259;123421;-87
2023/11/25 09:07:42;;;;;;;;;;;;;;;2.44;90.12;99378.83;106758;1259;59996;-87
2023/11/25 09:10:08;;;;;;;;;;;;;;;2.34;89.63;99381.42;106525;1260;124278;-86
2023/11/25 09:12:37;;;;;;;;;;;;;;;2.25;89.59;99382.48;106519;1259;73415;-86
2023/11/25 09:15:06;;;;;;;;;;;;;;;2.22;89.55;99381.35;106562;1259;124524;-86
2023/11/25 09:17:35;;;;;;;;;;;;;;;2.23;89.65;99383.79;106816;1263;72794;-86
2023/11/25 09:20:04;;;;;;;;;;;;;;;2.25;89.69;99388.02;106983;1259;61386;-87
2023/11/25 09:22:31;;;;;;;;;;;;;;;2.25;89.73;99393.42;106550;1259;498995;-87
2023/11/25 09:24:58;;;;;;;;;;;;;;;2.27;89.85;99396.25;106628;1259;73356;-87
2023/11/25 09:27:24;;;;;;;;;;;;;;;2.35;89.78;99400.71;106512;1260;124436;-88
2023/11/25 09:29:51;;;;;;;;;;;;;;;2.50;90.06;99399.48;106555;1263;71131;-89
2023/11/25 09:32:19;;;;;;;;;;;;;;;2.58;89.86;99397.70;106434;1259;61278;-88
2023/11/25 09:34:46;;;;;;;;;;;;;;;2.60;89.62;99400.19;106257;1260;125316;-89
2023/11/25 09:37:12;;;;;;;;;;;;;;;2.57;89.37;99400.96;106367;1261;74726;-87
2023/11/25 09:39:39;;;;;;;;;;;;;;;2.56;89.25;99405.07;106359;1264;124452;-87
2023/11/25 09:42:06;;;;;;;;;;;;;;;2.56;89.12;99403.15;106575;1264;72735;-87
2023/11/25 09:44:37;;;;;;;;;;;;;;;2.55;89.09;99400.86;106512;1260;61405;-88
2023/11/25 09:47:04;;;;;;;;;;;;;;;2.52;89.03;99402.86;106761;1259;124882;-87
2023/11/25 09:49:31;;;;;;;;;;;;;;;2.52;88.98;99409.60;106195;1267;74646;-88
2023/11/25 09:52:00;;;;;;;;;;;;;;;2.49;88.77;99405.70;106416;1258;124535;-89
2023/11/25 09:54:26;;;;;;;;;;;;;;;2.50;88.79;99406.45;106511;1259;72415;-87
2023/11/25 09:56:53;;;;;;;;;;;;;;;2.52;88.81;99408.58;106480;1259;61077;-88
2023/11/25 09:59:20;;;;;;;;;;;;;;;2.53;88.76;99412.40;106418;1264;124494;-89
2023/11/25 10:01:48;;;;;;;;;;;;;;;2.52;88.61;99412.21;106319;1259;74922;-88
2023/11/25 10:04:15;;;;;;;;;;;;;;;2.51;88.51;99422.02;106362;1259;124278;-85
2023/11/25 10:06:42;;;;;;;;;;;;;;;2.52;88.63;99423.98;106345;1259;71714;-88
2023/11/25 10:09:09;;;;;;;;;;;;;;;2.54;88.58;99420.75;106355;1259;124734;-81
2023/11/25 10:11:37;;;;;;;;;;;;;;;2.55;88.43;99420.95;106478;1259;59404;-81
2023/11/25 10:14:07;;;;;;;;;;;;;;;2.57;88.33;99422.91;106406;1264;74713;-82
2023/11/25 10:16:34;;;;;;;;;;;;;;;2.62;88.61;99422.60;106225;1259;123136;-80
2023/11/25 10:19:01;;;;;;;;;;;;;;;2.71;88.51;99420.14;106477;1259;72827;-81
2023/11/25 10:21:27;;;;;;;;;;;;;;;2.79;88.49;99413.84;106362;1263;124385;-81
2023/11/25 10:23:54;;;;;;;;;;;;;;;2.84;88.43;99416.95;106201;1266;61290;-82
2023/11/25 10:26:21;;;;;;;;;;;;;;;2.83;88.04;99415.37;106325;1259;74195;-80
2023/11/25 10:28:47;;;;;;;;;;;;;;;2.77;87.75;99410.11;106114;1259;124812;-81
2023/11/25 10:31:14;;;;;;;;;;;;;;;2.65;87.40;99414.05;106444;1259;71389;-79
2023/11/25 10:33:44;;;;;;;;;;;;;;;2.54;87.48;99413.31;106380;1261;124517;-80
2023/11/25 10:36:10;;;;;;;;;;;;;;;2.43;87.36;99412.40;106522;1262;60933;-86
2023/11/25 10:38:41;;;;;;;;;;;;;;;2.38;87.34;99416.52;106300;1259;73385;-84
2023/11/25 10:41:09;;;;;;;;;;;;;;;2.36;87.54;99420.45;106381;1260;124500;-90
2023/11/25 10:43:35;;;;;;;;;;;;;;;2.33;87.38;99426.60;106413;1259;71477;-91
2023/11/25 10:46:02;;;;;;;;;;;;;;;2.30;87.34;99421.98;106523;1261;124474;-90
2023/11/25 10:48:29;;;;;;;;;;;;;;;2.29;87.58;99424.52;106705;1264;61335;-91
2023/11/25 10:51:00;;;;;;;;;;;;;;;2.29;87.56;99422.44;106771;1259;74514;-90
2023/11/25 10:53:31;;;;;;;;;;;;;;;2.30;87.50;99434.63;106461;1259;124079;-91
2023/11/25 10:55:58;;;;;;;;;;;;;;;2.28;87.32;99434.54;106592;1259;72732;-90
2023/11/25 10:58:26;;;;;;;;;;;;;;;2.27;87.30;99434.52;106665;1259;124391;-90
2023/11/25 11:00:53;;;;;;;;;;;;;;;2.26;87.36;99435.67;106316;1260;60127;-92
2023/11/25 11:03:21;;;;;;;;;;;;;;;2.26;87.27;99442.95;106185;1259;124450;-86
2023/11/25 11:05:49;;;;;;;;;;;;;;;2.27;87.24;99446.98;106422;1263;66036;-84
2023/11/25 11:08:17;;;;;;;;;;;;;;;2.27;87.17;99442.97;106426;1259;70624;-84
2023/11/25 11:10:49;;;;;;;;;;;;;;;2.29;87.20;99443.39;106269;1264;124445;-84
2023/11/25 11:13:18;;;;;;;;;;;;;;;2.29;86.98;99443.91;106312;1259;61322;-84
2023/11/25 11:15:44;;;;;;;;;;;;;;;2.27;86.63;99444.70;106372;1259;124474;-84
2023/11/25 11:18:16;;;;;;;;;;;;;;;2.26;86.81;99445.38;106532;1263;65209;-84
2023/11/25 11:20:46;;;;;;;;;;;;;;;2.26;86.70;99445.20;106287;1259;72585;-84
2023/11/25 11:23:15;;;;;;;;;;;;;;;2.25;86.59;99448.44;106454;1259;123522;-85
2023/11/25 11:25:55;;;;;;;;;;;;;;;2.24;86.43;99449.42;106467;1259;61114;-85
2023/11/25 11:28:22;;;;;;;;;;;;;;;2.22;86.35;99447.63;106364;1259;124683;-92
2023/11/25 11:31:02;;;;;;;;;;;;;;;2.20;86.23;99455.54;106431;1259;66021;-85
2023/11/25 11:33:30;;;;;;;;;;;;;;;2.19;86.12;99456.88;106452;1264;124569;-84
2023/11/25 11:35:57;;;;;;;;;;;;;;;2.19;86.13;99456.67;106572;1260;59413;-83
2023/11/25 11:39:01;;;;;;;;;;;;;;;2.17;85.96;99457.66;106789;1263;61221;-92
2023/11/25 11:41:47;;;;;;;;;;;;;;;2.19;85.81;99461.35;106614;1265;124585;-91
2023/11/25 11:44:16;;;;;;;;;;;;;;;2.20;85.88;99460.02;106641;1262;64934;-92
2023/11/25 11:46:43;;;;;;;;;;;;;;;2.20;85.94;99457.61;106519;1259;124425;-91
2023/11/25 11:49:13;;;;;;;;;;;;;;;2.21;85.74;99450.17;106577;1262;61313;-92
2023/11/25 11:52:00;;;;;;;;;;;;;;;2.22;85.85;99457.52;106266;1261;124484;-90
2023/11/25 11:54:28;;;;;;;;;;;;;;;2.24;85.73;99457.24;106430;1265;73398;-90
2023/11/25 11:56:59;;;;;;;;;;;;;;;2.27;85.84;99464.30;106795;1259;64353;-91
2023/11/25 11:59:46;;;;;;;;;;;;;;;2.31;85.91;99463.91;106575;1259;124260;-90
2023/11/25 12:02:13;;;;;;;;;;;;;;;2.34;85.83;99467.65;106805;1259;61192;-91
2023/11/25 12:04:40;;;;;;;;;;;;;;;2.38;85.61;99471.06;106605;1259;124255;-86
2023/11/25 12:07:06;;;;;;;;;;;;;;;2.41;85.49;99465.63;106545;1259;74680;-84
2023/11/25 12:09:33;;;;;;;;;;;;;;;2.42;85.46;99466.23;106397;1263;124563;-84
2023/11/25 12:12:01;;;;;;;;;;;;;;;2.43;85.30;99469.88;106442;1259;72509;-84
2023/11/25 12:14:27;;;;;;;;;;;;;;;2.41;85.23;99465.48;106576;1259;61343;-92
2023/11/25 12:16:56;;;;;;;;;;;;;;;2.40;85.05;99463.19;106837;1258;124284;-92
2023/11/25 12:19:28;;;;;;;;;;;;;;;2.38;84.91;99461.37;106479;1259;74452;-90
2023/11/25 12:21:54;;;;;;;;;;;;;;;2.37;85.03;99459.95;106857;1259;123914;-91
2023/11/25 12:24:21;;;;;;;;;;;;;;;2.37;84.85;99462.40;106586;1259;71386;-91
2023/11/25 12:26:52;;;;;;;;;;;;;;;2.37;84.71;99466.02;106338;1259;61352;-85
2023/11/25 12:29:23;;;;;;;;;;;;;;;2.34;84.70;99470.58;106281;1259;124095;-85
2023/11/25 12:31:49;;;;;;;;;;;;;;;2.34;84.70;99471.09;106317;1262;74500;-84
2023/11/25 12:34:16;;;;;;;;;;;;;;;2.33;84.53;99468.83;106284;1259;125274;-84
2023/11/25 12:36:42;;;;;;;;;;;;;;;2.32;84.52;99466.87;106345;1259;72765;-84
2023/11/25 12:39:11;;;;;;;;;;;;;;;2.31;84.44;99468.77;106625;1259;124656;-84
2023/11/25 12:41:41;;;;;;;;;;;;;;;2.31;84.45;99470.83;106658;1264;59514;-91
2023/11/25 12:44:09;;;;;;;;;;;;;;;2.27;84.17;99471.89;106901;1260;73971;-91
2023/11/25 12:46:37;;;;;;;;;;;;;;;2.25;84.28;99469.74;106613;1260;124446;-91
2023/11/25 12:49:17;;;;;;;;;;;;;;;2.26;84.01;99469.77;106404;1259;71825;-91
2023/11/25 12:51:43;;;;;;;;;;;;;;;2.27;83.87;99471.70;106541;1259;124690;-91